Time;durP1;ratioP1;P1;durP2;ratioP2;P2;SDS_P1;SDS_P2;PMS_P1;PMS_P2;Temp;Humidity;BMP_temperature;BMP_pressure;BME280_temperature;BME280_humidity;BME280_pressure;Samples;Min_cycle;Max_cycle;Signal;HPM_P1;HPM_P2
2022/06/27 00:01:18;;;;;;;2.33;1.90;;;18.60;99.90;;;;;;5109883;28;20464;-85
2022/06/27 00:03:45;;;;;;;1.57;1.47;;;18.60;99.90;;;;;;5106636;28;20446;-85
2022/06/27 00:06:12;;;;;;;3.00;1.33;;;18.60;99.90;;;;;;5112028;28;20491;-86
2022/06/27 00:08:39;;;;;;;1.00;1.00;;;18.60;99.90;;;;;;5109251;28;21219;-84
2022/06/27 00:11:07;;;;;;;0.90;0.90;;;18.60;99.90;;;;;;5112253;28;20451;-85
2022/06/27 00:13:33;;;;;;;1.10;1.00;;;18.50;99.90;;;;;;5109940;28;20450;-85
2022/06/27 00:16:00;;;;;;;1.70;1.60;;;18.30;99.90;;;;;;5109750;28;20480;-85
2022/06/27 00:18:29;;;;;;;1.33;1.23;;;18.10;99.90;;;;;;5107649;28;20501;-85
2022/06/27 00:20:56;;;;;;;2.13;1.40;;;17.90;99.90;;;;;;5120224;28;20453;-85
2022/06/27 00:23:23;;;;;;;2.07;0.90;;;17.70;99.90;;;;;;5129431;28;20461;-85
2022/06/27 00:25:50;;;;;;;2.77;1.03;;;17.50;99.90;;;;;;5122959;28;20506;-85
2022/06/27 00:28:20;;;;;;;1.23;1.13;;;17.30;99.90;;;;;;5112423;28;20456;-85
2022/06/27 00:30:47;;;;;;;1.60;1.30;;;17.20;99.90;;;;;;5110542;28;20452;-85
2022/06/27 00:33:20;;;;;;;5.13;1.30;;;17.10;99.90;;;;;;5108760;28;20448;-86
2022/06/27 00:35:50;;;;;;;1.90;1.47;;;17.00;99.90;;;;;;5102839;27;20465;-85
2022/06/27 01:40:06;;;;;;;1.90;1.80;;;16.60;99.90;;;;;;4894072;29;20463;-86
2022/06/27 01:42:43;;;;;;;1.90;1.80;;;16.50;99.90;;;;;;4954316;29;20468;-86
2022/06/27 01:57:31;;;;;;;3.50;2.20;;;16.90;99.90;;;;;;5100452;28;20452;-85
2022/06/27 02:00:06;;;;;;;1.80;1.70;;;17.00;99.90;;;;;;5114570;28;20452;-86
2022/06/27 02:02:33;;;;;;;1.90;1.80;;;17.00;99.90;;;;;;5116445;28;20474;-86
2022/06/27 02:05:01;;;;;;;4.87;2.23;;;16.90;99.90;;;;;;5116997;28;20487;-86
2022/06/27 02:07:29;;;;;;;3.40;2.67;;;17.00;99.90;;;;;;5096528;28;20462;-85
2022/06/27 02:09:55;;;;;;;1.40;1.30;;;17.10;99.90;;;;;;5096138;28;20476;-85
2022/06/27 02:12:23;;;;;;;3.33;1.93;;;17.20;99.90;;;;;;5114991;28;20452;-86
2022/06/27 02:14:52;;;;;;;2.60;1.93;;;17.30;99.90;;;;;;5099547;28;20516;-84
2022/06/27 02:17:21;;;;;;;2.57;1.90;;;17.40;99.90;;;;;;5096187;28;20472;-85
2022/06/27 02:19:49;;;;;;;2.57;1.87;;;17.30;99.90;;;;;;5094619;28;20931;-85
2022/06/27 02:22:16;;;;;;;2.70;2.30;;;17.10;99.90;;;;;;5094715;28;20450;-85
2022/06/27 02:24:43;;;;;;;3.10;2.40;;;17.00;99.90;;;;;;5095587;28;20489;-85
2022/06/27 02:27:11;;;;;;;2.10;1.83;;;17.20;99.90;;;;;;5101128;28;20480;-85
2022/06/27 02:29:39;;;;;;;1.83;1.73;;;17.20;99.90;;;;;;5113546;28;20454;-86
2022/06/27 02:32:07;;;;;;;2.63;1.80;;;17.20;99.90;;;;;;5116473;28;20956;-85
2022/06/27 02:34:35;;;;;;;2.97;2.67;;;17.20;99.90;;;;;;5117370;28;20474;-86
2022/06/27 02:37:04;;;;;;;2.20;2.03;;;17.20;99.90;;;;;;5110327;28;20985;-86
2022/06/27 02:39:34;;;;;;;2.43;2.23;;;17.30;99.90;;;;;;5098709;28;20456;-86
2022/06/27 02:42:03;;;;;;;2.30;2.10;;;17.30;99.90;;;;;;5105754;28;20475;-86
2022/06/27 02:44:31;;;;;;;4.03;2.30;;;17.30;99.90;;;;;;5126987;28;20801;-85
2022/06/27 02:46:58;;;;;;;3.20;3.00;;;17.30;99.90;;;;;;5112021;28;20506;-85
2022/06/27 02:49:27;;;;;;;3.00;2.80;;;17.20;99.90;;;;;;5112946;28;20448;-85
2022/06/27 02:52:03;;;;;;;3.70;3.20;;;17.20;99.90;;;;;;5114991;28;20495;-85
2022/06/27 02:54:38;;;;;;;4.20;3.00;;;17.30;99.90;;;;;;5101524;28;20533;-86
2022/06/27 02:57:14;;;;;;;3.70;3.17;;;17.30;99.90;;;;;;5099589;28;20527;-86
2022/06/27 02:59:45;;;;;;;3.87;3.10;;;17.30;99.90;;;;;;5099274;28;20449;-86
2022/06/27 03:02:12;;;;;;;6.30;3.20;;;17.10;99.90;;;;;;5099610;28;20457;-86
2022/06/27 03:04:39;;;;;;;4.10;3.70;;;17.20;99.90;;;;;;5100506;28;20456;-85
2022/06/27 03:07:07;;;;;;;6.70;3.63;;;17.20;99.90;;;;;;5100064;28;20479;-86
2022/06/27 03:09:33;;;;;;;4.87;3.70;;;17.20;99.90;;;;;;5101539;28;20933;-86
2022/06/27 03:12:00;;;;;;;4.33;3.77;;;17.10;99.90;;;;;;5121122;28;20461;-86
2022/06/27 03:14:27;;;;;;;4.40;4.00;;;17.00;99.90;;;;;;5119870;28;20448;-86
2022/06/27 03:16:54;;;;;;;5.50;4.17;;;16.90;99.90;;;;;;5115621;28;20472;-85
2022/06/27 03:19:20;;;;;;;4.23;3.90;;;16.90;99.90;;;;;;5121200;28;20520;-85
2022/06/27 03:21:47;;;;;;;4.77;4.37;;;16.80;99.90;;;;;;5100776;28;20449;-85
2022/06/27 03:24:15;;;;;;;7.10;4.60;;;16.90;99.90;;;;;;5114664;28;20459;-86
2022/06/27 03:26:42;;;;;;;5.57;4.83;;;16.80;99.90;;;;;;5121126;28;20495;-86
2022/06/27 03:29:10;;;;;;;5.07;4.67;;;16.70;99.90;;;;;;5106597;28;20453;-84
2022/06/27 03:31:36;;;;;;;4.70;4.30;;;16.60;99.90;;;;;;5099298;28;20461;-85
2022/06/27 03:34:03;;;;;;;5.43;4.93;;;16.70;99.90;;;;;;5117403;28;20447;-84
2022/06/27 03:36:30;;;;;;;4.10;3.70;;;16.80;99.90;;;;;;5119133;28;20465;-84
2022/06/27 03:38:57;;;;;;;5.30;4.80;;;16.90;99.90;;;;;;5112506;28;20460;-83
2022/06/27 03:41:25;;;;;;;10.20;4.87;;;16.70;99.90;;;;;;5118765;28;20456;-85
2022/06/27 03:43:52;;;;;;;5.23;4.53;;;16.70;99.90;;;;;;5113962;28;20814;-85
2022/06/27 03:46:18;;;;;;;4.10;3.80;;;16.60;99.90;;;;;;5102586;28;20504;-85
2022/06/27 03:51:29;;;;;;;5.17;4.67;;;16.80;99.90;;;;;;5116951;28;20452;-84
2022/06/27 03:53:56;;;;;;;5.53;4.50;;;16.80;99.90;;;;;;5104635;28;20455;-84
2022/06/27 03:56:24;;;;;;;4.60;4.10;;;16.80;99.90;;;;;;5103389;28;20531;-85
2022/06/27 03:58:51;;;;;;;5.57;4.63;;;16.90;99.90;;;;;;5106527;28;20453;-86
2022/06/27 04:01:21;;;;;;;5.90;4.03;;;17.00;99.90;;;;;;5113479;28;20454;-86
2022/06/27 04:03:48;;;;;;;5.27;4.60;;;16.90;99.90;;;;;;5122156;28;20447;-85
2022/06/27 04:06:15;;;;;;;5.77;5.30;;;17.00;99.90;;;;;;5123316;28;20490;-86
2022/06/27 04:08:42;;;;;;;4.70;4.30;;;17.10;99.90;;;;;;5124253;28;20445;-86
2022/06/27 04:11:09;;;;;;;6.27;4.80;;;17.00;99.90;;;;;;5118057;28;20457;-86
2022/06/27 04:13:37;;;;;;;5.03;4.63;;;17.00;99.90;;;;;;5113373;28;20452;-86
2022/06/27 04:16:05;;;;;;;8.53;6.00;;;17.10;99.90;;;;;;5116252;28;20526;-85
2022/06/27 04:18:32;;;;;;;4.80;4.30;;;17.20;99.90;;;;;;5112251;28;20442;-85
2022/06/27 04:20:59;;;;;;;5.70;4.70;;;17.20;99.90;;;;;;5116625;28;20451;-86
2022/06/27 04:23:26;;;;;;;4.37;4.07;;;17.10;99.90;;;;;;5115524;28;20456;-86
2022/06/27 04:25:53;;;;;;;4.40;3.40;;;17.20;99.90;;;;;;5114228;27;20851;-85
2022/06/27 04:28:20;;;;;;;4.00;3.63;;;17.30;99.90;;;;;;5103333;28;20457;-85
2022/06/27 04:30:48;;;;;;;3.47;3.20;;;17.30;99.90;;;;;;5113353;28;20436;-85
2022/06/27 04:33:15;;;;;;;3.83;3.53;;;17.30;99.90;;;;;;5110534;28;20479;-85
2022/06/27 04:35:42;;;;;;;3.40;3.10;;;17.30;99.90;;;;;;5107509;28;20469;-86
2022/06/27 04:38:09;;;;;;;4.03;3.73;;;17.20;99.90;;;;;;5112079;28;20512;-85
2022/06/27 04:40:36;;;;;;;3.70;3.50;;;17.30;99.90;;;;;;5109525;28;20447;-86
2022/06/27 04:43:03;;;;;;;4.63;3.07;;;17.40;99.90;;;;;;5110554;28;20449;-86
2022/06/27 04:45:32;;;;;;;2.93;2.73;;;17.40;99.90;;;;;;5112572;28;20494;-86
2022/06/27 04:48:00;;;;;;;3.60;3.30;;;17.50;99.90;;;;;;5108239;28;20532;-86
2022/06/27 04:50:27;;;;;;;5.27;3.40;;;17.60;99.90;;;;;;5121805;28;20496;-83
2022/06/27 04:52:54;;;;;;;3.10;2.90;;;17.60;99.90;;;;;;5117582;28;20458;-85
2022/06/27 04:55:21;;;;;;;3.00;2.70;;;17.60;99.90;;;;;;5101239;28;20508;-85
2022/06/27 04:57:49;;;;;;;4.00;3.70;;;17.60;99.90;;;;;;5103788;28;20492;-85
2022/06/27 05:00:17;;;;;;;3.50;3.30;;;17.60;99.90;;;;;;5119722;28;20448;-85
2022/06/27 05:02:44;;;;;;;4.07;3.00;;;17.70;99.90;;;;;;5111524;28;20460;-85
2022/06/27 05:05:12;;;;;;;3.40;3.20;;;17.70;99.90;;;;;;5121463;28;20930;-85
2022/06/27 05:07:39;;;;;;;2.93;2.70;;;17.70;99.90;;;;;;5117642;28;20448;-83
2022/06/27 05:10:08;;;;;;;3.37;3.17;;;17.70;99.90;;;;;;5104898;28;20480;-81
2022/06/27 05:12:34;;;;;;;3.53;3.23;;;17.80;99.90;;;;;;5099893;28;20465;-83
2022/06/27 05:15:01;;;;;;;3.00;2.70;;;17.80;99.90;;;;;;5110799;28;20453;-82
2022/06/27 05:17:28;;;;;;;3.90;3.60;;;17.90;99.90;;;;;;5098763;28;20457;-82
2022/06/27 05:19:55;;;;;;;2.77;2.57;;;17.80;99.90;;;;;;5099061;28;20455;-84
2022/06/27 05:22:23;;;;;;;5.07;3.03;;;17.90;99.90;;;;;;5100007;28;20457;-85
2022/06/27 05:24:50;;;;;;;4.00;3.13;;;17.90;99.90;;;;;;5100744;28;20450;-85
2022/06/27 05:27:17;;;;;;;2.40;2.20;;;17.90;99.90;;;;;;5113671;28;20491;-85
2022/06/27 05:29:44;;;;;;;2.17;2.00;;;18.00;99.90;;;;;;5121369;28;20448;-85
2022/06/27 05:32:11;;;;;;;3.03;2.80;;;18.00;99.90;;;;;;5119065;28;20460;-85
2022/06/27 05:34:39;;;;;;;2.23;2.07;;;18.00;99.90;;;;;;5112878;28;20533;-83
2022/06/27 05:37:06;;;;;;;2.47;2.10;;;17.90;99.90;;;;;;5099986;28;20468;-84
2022/06/27 05:39:35;;;;;;;2.90;2.67;;;17.80;99.90;;;;;;5105593;28;20460;-83
2022/06/27 05:42:03;;;;;;;2.87;2.67;;;17.70;99.90;;;;;;5119980;28;20458;-83
2022/06/27 05:44:29;;;;;;;4.60;3.23;;;17.70;99.90;;;;;;5115118;28;20450;-83
2022/06/27 05:46:58;;;;;;;2.73;2.50;;;17.80;99.90;;;;;;5099991;28;20485;-83
2022/06/27 05:49:25;;;;;;;4.20;3.60;;;17.80;99.90;;;;;;5102051;28;20544;-81
2022/06/27 05:51:52;;;;;;;3.70;3.43;;;17.90;99.90;;;;;;5115394;28;20486;-79
2022/06/27 05:54:19;;;;;;;3.43;3.13;;;17.90;99.90;;;;;;5119590;28;20513;-80
2022/06/27 05:56:48;;;;;;;3.97;3.67;;;18.00;99.90;;;;;;5124174;28;20466;-82
2022/06/27 05:59:16;;;;;;;4.73;3.33;;;18.00;99.90;;;;;;5124477;28;20488;-82
2022/06/27 06:01:43;;;;;;;5.37;3.77;;;18.00;99.90;;;;;;5123399;28;20474;-81
2022/06/27 06:04:10;;;;;;;4.17;3.87;;;18.00;99.90;;;;;;5128360;27;20455;-82
2022/06/27 06:06:37;;;;;;;5.00;4.60;;;17.90;99.90;;;;;;5122040;28;20491;-82
2022/06/27 06:09:04;;;;;;;4.20;3.60;;;18.00;99.90;;;;;;5119853;28;20448;-82
2022/06/27 06:11:31;;;;;;;3.23;2.93;;;18.00;99.90;;;;;;5101719;28;20453;-83
2022/06/27 06:13:59;;;;;;;3.07;2.20;;;17.90;99.90;;;;;;5104041;28;20449;-83
2022/06/27 06:16:26;;;;;;;3.27;3.07;;;18.00;99.90;;;;;;5122582;28;20464;-84
2022/06/27 06:18:54;;;;;;;2.07;1.97;;;18.00;99.90;;;;;;5122951;28;20534;-83
2022/06/27 06:21:22;;;;;;;2.80;2.60;;;18.00;99.90;;;;;;5112273;28;20438;-81
2022/06/27 06:23:51;;;;;;;1.97;1.73;;;18.10;99.90;;;;;;5126016;28;20456;-83
2022/06/27 06:26:19;;;;;;;3.47;2.23;;;18.20;99.90;;;;;;5125217;28;20506;-82
2022/06/27 06:28:46;;;;;;;2.50;2.30;;;18.30;99.90;;;;;;5110486;28;20458;-83
2022/06/27 06:31:21;;;;;;;1.60;1.50;;;18.30;99.90;;;;;;5106004;28;20445;-83
2022/06/27 06:33:48;;;;;;;1.83;1.50;;;18.40;99.90;;;;;;5119602;28;20463;-82
2022/06/27 06:36:15;;;;;;;3.40;1.93;;;18.40;99.90;;;;;;5124937;28;20970;-82
2022/06/27 06:38:42;;;;;;;1.97;1.87;;;18.50;99.90;;;;;;5111894;28;20465;-82
2022/06/27 06:41:09;;;;;;;2.00;1.90;;;18.60;99.90;;;;;;5104040;28;20462;-82
2022/06/27 06:43:36;;;;;;;2.33;2.13;;;18.70;99.90;;;;;;5116146;28;20445;-81
2022/06/27 06:46:03;;;;;;;1.47;1.37;;;18.90;99.90;;;;;;5123447;28;20481;-82
2022/06/27 06:48:32;;;;;;;2.00;1.90;;;19.10;99.90;;;;;;5123679;28;20602;-83
2022/06/27 06:50:58;;;;;;;2.10;1.63;;;19.20;99.90;;;;;;5110239;28;20484;-82
2022/06/27 06:53:25;;;;;;;2.83;1.60;;;19.50;99.90;;;;;;5123866;28;20452;-81
2022/06/27 06:55:52;;;;;;;2.20;1.60;;;19.70;99.90;;;;;;5131825;27;20829;-81
2022/06/27 06:58:20;;;;;;;2.33;2.13;;;19.70;99.90;;;;;;5107553;28;20458;-81
2022/06/27 07:00:47;;;;;;;1.77;1.67;;;19.70;99.90;;;;;;5102063;28;20449;-82
2022/06/27 07:03:14;;;;;;;3.00;2.70;;;19.80;99.90;;;;;;5117214;28;20454;-82
2022/06/27 07:05:42;;;;;;;1.97;1.30;;;19.80;99.90;;;;;;5102638;28;20469;-81
2022/06/27 07:08:09;;;;;;;1.70;1.60;;;19.90;99.90;;;;;;5101970;28;20885;-83
2022/06/27 07:10:36;;;;;;;3.67;1.47;;;20.00;99.90;;;;;;5102607;28;20446;-82
2022/06/27 07:13:03;;;;;;;1.70;1.60;;;20.00;99.90;;;;;;5108899;28;20450;-82
2022/06/27 07:15:31;;;;;;;1.70;1.30;;;20.30;99.90;;;;;;5101183;28;20463;-82
2022/06/27 07:17:58;;;;;;;1.93;1.20;;;20.50;99.90;;;;;;5103225;28;20458;-82
2022/06/27 07:20:26;;;;;;;1.20;1.20;;;20.50;99.90;;;;;;5115145;28;21069;-82
2022/06/27 07:22:54;;;;;;;1.50;1.40;;;20.60;99.90;;;;;;5102494;28;20453;-82
2022/06/27 07:25:22;;;;;;;1.70;1.50;;;20.90;99.90;;;;;;5110230;28;20468;-82
2022/06/27 07:27:51;;;;;;;2.00;1.23;;;21.00;99.90;;;;;;5112401;28;20577;-81
2022/06/27 07:30:19;;;;;;;4.47;1.97;;;21.00;99.90;;;;;;5121686;28;20477;-81
2022/06/27 07:32:47;;;;;;;1.53;1.40;;;21.10;99.90;;;;;;5112372;28;20934;-86
2022/06/27 07:35:16;;;;;;;2.40;1.57;;;21.20;99.90;;;;;;5111742;28;20451;-84
2022/06/27 07:38:43;;;;;;;1.70;1.60;;;21.30;99.90;;;;;;5111014;28;20504;-85
2022/06/27 07:41:32;;;;;;;1.50;1.50;;;21.40;99.90;;;;;;5107311;28;20438;-86
2022/06/27 08:05:24;;;;;;;4.10;1.40;;;22.50;99.90;;;;;;5041290;28;20480;-85
2022/06/27 08:07:51;;;;;;;1.80;1.43;;;22.60;99.90;;;;;;5043402;28;20487;-85
2022/06/27 08:10:18;;;;;;;1.90;1.80;;;22.20;99.90;;;;;;5044705;28;20457;-85
2022/06/27 08:12:47;;;;;;;3.63;2.00;;;22.10;99.90;;;;;;5041658;28;20511;-86
2022/06/27 08:15:15;;;;;;;1.60;1.50;;;22.10;99.90;;;;;;5045213;28;20487;-85
2022/06/27 08:17:42;;;;;;;1.50;1.40;;;22.30;99.90;;;;;;5044007;28;20445;-87
2022/06/27 08:20:10;;;;;;;1.80;1.70;;;22.20;99.90;;;;;;5050354;28;20459;-86
2022/06/27 08:23:26;;;;;;;1.40;1.03;;;22.10;99.90;;;;;;5048673;28;20552;-87
2022/06/27 08:25:57;;;;;;;10.87;4.70;;;22.10;99.90;;;;;;5038289;28;20503;-89
2022/06/27 08:28:25;;;;;;;3.00;1.80;;;22.20;99.90;;;;;;5042681;28;20570;-87
2022/06/27 08:30:52;;;;;;;1.93;1.43;;;22.40;99.90;;;;;;5037756;28;20449;-86
2022/06/27 08:33:19;;;;;;;1.77;1.67;;;22.50;99.90;;;;;;5038248;28;20462;-86
2022/06/27 08:39:11;;;;;;;1.53;1.30;;;22.80;99.90;;;;;;5039933;28;20508;-86
2022/06/27 08:41:39;;;;;;;1.20;1.10;;;22.80;99.90;;;;;;5037851;28;20461;-87
2022/06/27 08:44:11;;;;;;;1.60;1.50;;;22.80;99.90;;;;;;5042932;28;20438;-86
2022/06/27 08:47:06;;;;;;;1.53;0.90;;;22.90;99.90;;;;;;5047638;28;20465;-86
2022/06/27 08:50:22;;;;;;;;;;;;;;;;;;;;;
2022/06/27 08:52:59;;;;;;;3.60;1.50;;;23.40;99.90;;;;;;5024063;28;20441;-84
2022/06/27 08:55:33;;;;;;;1.20;1.10;;;23.60;99.90;;;;;;5036702;28;20473;-86
2022/06/27 08:58:06;;;;;;;1.00;1.00;;;23.40;99.90;;;;;;5042227;28;20454;-86
2022/06/27 09:00:41;;;;;;;1.80;1.40;;;23.30;99.90;;;;;;5045889;28;20464;-86
2022/06/27 09:03:13;;;;;;;1.47;1.30;;;23.70;99.90;;;;;;5044707;28;20441;-85
2022/06/27 09:05:45;;;;;;;1.03;1.03;;;23.60;99.90;;;;;;5043094;28;20525;-87
2022/06/27 09:08:12;;;;;;;1.47;1.37;;;23.40;99.90;;;;;;5038235;28;20499;-87
2022/06/27 09:13:47;;;;;;;1.93;1.20;;;22.80;99.90;;;;;;5023726;28;20435;-85
2022/06/27 09:16:17;;;;;;;0.80;0.80;;;22.60;99.90;;;;;;5039864;28;20499;-84
2022/06/27 09:18:44;;;;;;;2.57;1.60;;;22.10;99.90;;;;;;5045122;28;20453;-83
2022/06/27 09:21:13;;;;;;;1.30;1.23;;;22.00;99.90;;;;;;5043263;28;20449;-85
2022/06/27 09:23:42;;;;;;;1.70;1.60;;;21.90;99.90;;;;;;5046668;28;20439;-85
2022/06/27 09:26:12;;;;;;;1.30;1.20;;;21.60;99.90;;;;;;5049071;28;20475;-85
2022/06/27 09:28:56;;;;;;;1.83;1.43;;;21.50;99.90;;;;;;5043320;28;20487;-86
2022/06/27 09:31:32;;;;;;;1.23;1.10;;;21.30;99.90;;;;;;5043922;28;20542;-86
2022/06/27 09:34:16;;;;;;;1.13;1.00;;;21.20;99.90;;;;;;5043603;28;20449;-86
2022/06/27 09:36:46;;;;;;;2.20;1.30;;;21.10;99.90;;;;;;5042877;28;20475;-86
2022/06/27 09:39:37;;;;;;;2.50;1.80;;;21.30;99.90;;;;;;5042962;28;20454;-86
2022/06/27 09:52:04;;;;;;;1.53;1.13;;;22.60;99.90;;;;;;5043615;28;20449;-86
2022/06/27 09:54:33;;;;;;;1.90;1.73;;;22.90;99.90;;;;;;5044058;28;20462;-87
2022/06/27 09:57:15;;;;;;;1.33;1.23;;;23.10;99.90;;;;;;5043973;28;20469;-86
2022/06/27 09:59:42;;;;;;;2.70;1.23;;;22.90;99.90;;;;;;5043301;28;20465;-87
2022/06/27 10:12:36;;;;;;;2.00;1.80;;;22.40;99.90;;;;;;5045124;28;20483;-87
2022/06/27 10:15:23;;;;;;;3.23;1.73;;;22.30;99.90;;;;;;5054219;28;20440;-86
2022/06/27 10:17:51;;;;;;;1.20;1.10;;;22.20;99.90;;;;;;5052302;28;20436;-87
2022/06/27 10:20:20;;;;;;;1.87;1.77;;;22.20;99.90;;;;;;5047625;28;20543;-87
2022/06/27 10:22:49;;;;;;;2.10;1.70;;;21.90;99.90;;;;;;5044908;28;20432;-87
2022/06/27 10:25:35;;;;;;;1.90;1.80;;;21.90;99.90;;;;;;5044197;28;20448;-87
2022/06/27 10:28:20;;;;;;;1.70;1.60;;;21.90;99.90;;;;;;5044222;28;20498;-86
2022/06/27 10:30:48;;;;;;;1.67;1.57;;;21.70;99.90;;;;;;5044068;28;20663;-86
2022/06/27 10:33:46;;;;;;;3.50;1.70;;;21.70;99.90;;;;;;5044819;28;20487;-86
2022/06/27 10:36:16;;;;;;;2.93;1.63;;;21.50;99.90;;;;;;5021321;28;20470;-87
2022/06/27 10:38:48;;;;;;;1.60;1.50;;;21.40;99.90;;;;;;5043641;28;20457;-87
2022/06/27 10:41:36;;;;;;;4.97;1.97;;;21.20;99.90;;;;;;5043235;28;20985;-87
2022/06/27 10:44:06;;;;;;;2.07;1.97;;;21.10;99.90;;;;;;5043104;28;20587;-86
2022/06/27 10:46:43;;;;;;;2.33;2.23;;;20.90;99.90;;;;;;5043342;28;20480;-87
2022/06/27 10:49:24;;;;;;;3.00;2.70;;;20.70;99.90;;;;;;5044546;28;20475;-86
2022/06/27 10:51:52;;;;;;;2.60;2.50;;;20.70;99.90;;;;;;5047739;28;20448;-86
2022/06/27 10:54:20;;;;;;;2.20;2.10;;;20.70;99.90;;;;;;5047196;28;20455;-86
2022/06/27 10:56:50;;;;;;;2.80;2.70;;;20.60;99.90;;;;;;5047201;28;20520;-87
2022/06/27 11:00:04;;;;;;;3.27;2.80;;;20.60;99.90;;;;;;5047427;28;20463;-86
2022/06/27 11:02:34;;;;;;;2.60;2.47;;;20.80;99.90;;;;;;5046661;28;20844;-85
2022/06/27 11:05:01;;;;;;;3.00;2.80;;;20.70;99.90;;;;;;5054374;28;20464;-86
2022/06/27 11:07:30;;;;;;;2.90;2.63;;;20.70;99.90;;;;;;5047311;28;20491;-86
2022/06/27 11:09:57;;;;;;;3.13;2.83;;;20.70;99.90;;;;;;5046250;28;20459;-87
2022/06/27 11:12:32;;;;;;;3.73;3.47;;;20.70;99.90;;;;;;5045799;28;20817;-86
2022/06/27 11:15:00;;;;;;;8.07;3.60;;;20.70;99.90;;;;;;5045715;28;20467;-86
2022/06/27 11:17:38;;;;;;;3.80;3.50;;;20.70;99.90;;;;;;5046635;28;20487;-86
2022/06/27 11:20:25;;;;;;;3.03;2.83;;;20.70;99.90;;;;;;5047479;28;20437;-86
2022/06/27 11:22:56;;;;;;;3.63;3.33;;;20.90;99.90;;;;;;5047160;28;20446;-86
2022/06/27 11:25:25;;;;;;;4.43;3.53;;;20.80;99.90;;;;;;5046322;28;20568;-86
2022/06/27 11:27:54;;;;;;;3.43;3.23;;;20.80;99.90;;;;;;5046492;28;20488;-86
2022/06/27 11:33:17;;;;;;;3.90;3.30;;;20.80;99.90;;;;;;5047652;28;20422;-86
2022/06/27 11:35:45;;;;;;;2.83;2.63;;;20.80;99.90;;;;;;5046903;28;20493;-86
2022/06/27 11:38:12;;;;;;;3.97;3.67;;;20.70;99.90;;;;;;5047106;28;20447;-86
2022/06/27 11:40:39;;;;;;;2.93;2.60;;;20.70;99.90;;;;;;5046847;28;20447;-86
2022/06/27 11:43:08;;;;;;;2.30;2.20;;;20.70;99.90;;;;;;5047565;28;20449;-86
2022/06/27 11:45:41;;;;;;;2.77;2.57;;;20.70;99.90;;;;;;5047557;28;21039;-86
2022/06/27 11:48:14;;;;;;;3.10;2.87;;;20.70;99.90;;;;;;5046087;28;20539;-86
2022/06/27 11:50:43;;;;;;;3.30;3.03;;;20.80;99.90;;;;;;5046401;28;20449;-87
2022/06/27 11:53:10;;;;;;;7.90;4.73;;;20.90;99.90;;;;;;5048365;28;20447;-86
2022/06/27 11:55:37;;;;;;;3.67;2.97;;;20.90;99.90;;;;;;5049549;28;20490;-86
2022/06/27 11:58:03;;;;;;;2.20;2.10;;;20.80;99.90;;;;;;5047195;28;20464;-87
2022/06/27 12:00:33;;;;;;;2.53;2.33;;;20.90;99.90;;;;;;5046866;28;20962;-86
2022/06/27 12:03:05;;;;;;;2.30;2.20;;;20.70;99.90;;;;;;5047029;28;20460;-88
2022/06/27 12:05:32;;;;;;;6.23;5.73;;;20.70;99.90;;;;;;5046264;28;20485;-87
2022/06/27 12:08:03;;;;;;;3.77;2.37;;;20.80;99.90;;;;;;5046168;28;20481;-87
2022/06/27 12:10:45;;;;;;;2.43;2.23;;;20.70;99.90;;;;;;5045610;28;20513;-87
2022/06/27 12:13:14;;;;;;;9.73;4.60;;;20.70;99.90;;;;;;5046389;28;20441;-85
2022/06/27 12:15:43;;;;;;;4.00;3.10;;;20.70;99.90;;;;;;5047984;28;20466;-86
2022/06/27 12:18:12;;;;;;;2.70;2.53;;;20.70;99.90;;;;;;5046857;28;20448;-87
2022/06/27 12:20:41;;;;;;;2.70;2.50;;;20.50;99.90;;;;;;5045489;28;20461;-87
2022/06/27 12:23:09;;;;;;;3.60;2.40;;;20.40;99.90;;;;;;5046101;28;20468;-86
2022/06/27 12:25:36;;;;;;;3.13;2.93;;;20.40;99.90;;;;;;5046147;28;20475;-87
2022/06/27 12:28:04;;;;;;;2.80;2.60;;;20.50;99.90;;;;;;5045864;28;20488;-87
2022/06/27 12:30:31;;;;;;;2.63;2.43;;;20.50;99.90;;;;;;5045404;28;20461;-86
2022/06/27 12:33:05;;;;;;;3.07;2.87;;;20.40;99.90;;;;;;5052589;28;20462;-86
2022/06/27 12:35:36;;;;;;;3.80;3.60;;;20.50;99.90;;;;;;5052087;28;20469;-85
2022/06/27 12:38:04;;;;;;;2.83;2.63;;;20.40;99.90;;;;;;5046901;28;20508;-85
2022/06/27 12:40:32;;;;;;;6.67;6.07;;;20.30;99.90;;;;;;5042072;28;20460;-86
2022/06/27 12:42:59;;;;;;;4.87;4.40;;;20.30;99.90;;;;;;5045316;28;20473;-83
2022/06/27 12:45:26;;;;;;;3.80;3.50;;;20.20;99.90;;;;;;5045280;28;20843;-85
2022/06/27 12:47:53;;;;;;;3.20;3.00;;;20.30;99.90;;;;;;5041925;28;20481;-85
2022/06/27 12:50:19;;;;;;;2.60;2.40;;;20.30;99.90;;;;;;5041546;28;20452;-85
2022/06/27 12:52:48;;;;;;;2.53;2.43;;;20.30;99.90;;;;;;5042420;28;20484;-86
2022/06/27 12:55:14;;;;;;;2.50;2.40;;;20.20;99.90;;;;;;5043609;28;20464;-85
2022/06/27 12:57:43;;;;;;;3.90;3.70;;;20.10;99.90;;;;;;5046737;28;20466;-84
2022/06/27 13:00:11;;;;;;;3.00;2.70;;;20.10;99.90;;;;;;5041591;28;20867;-86
2022/06/27 13:02:38;;;;;;;4.07;3.70;;;20.10;99.90;;;;;;5041855;28;20453;-85
2022/06/27 13:05:05;;;;;;;3.40;3.20;;;20.10;99.90;;;;;;5040448;28;20559;-86
2022/06/27 13:07:32;;;;;;;3.67;3.30;;;20.10;99.90;;;;;;5041170;28;20460;-85
2022/06/27 13:09:59;;;;;;;2.60;2.50;;;20.10;99.90;;;;;;5040848;28;20459;-85
2022/06/27 13:12:26;;;;;;;3.00;2.80;;;20.10;99.90;;;;;;5040554;28;20466;-86
2022/06/27 13:14:54;;;;;;;3.63;2.63;;;20.10;99.90;;;;;;5040976;28;20453;-85
2022/06/27 13:17:21;;;;;;;3.00;2.80;;;20.10;99.90;;;;;;5040812;28;20469;-85
2022/06/27 13:19:48;;;;;;;15.40;6.20;;;20.10;99.90;;;;;;5041173;28;20462;-86
2022/06/27 13:22:14;;;;;;;2.60;2.50;;;20.20;99.90;;;;;;5041231;28;20456;-85
2022/06/27 13:24:42;;;;;;;3.00;2.80;;;20.30;99.90;;;;;;5040234;28;20444;-86
2022/06/27 13:27:09;;;;;;;2.97;2.77;;;20.30;99.90;;;;;;5040177;28;20503;-86
2022/06/27 13:29:36;;;;;;;3.60;3.27;;;20.40;99.90;;;;;;5039668;28;20487;-85
2022/06/27 13:32:05;;;;;;;3.33;3.00;;;20.50;99.90;;;;;;5040426;28;20465;-86
2022/06/27 13:34:32;;;;;;;3.77;3.33;;;20.50;99.90;;;;;;5048665;28;21034;-86
2022/06/27 13:36:59;;;;;;;2.90;2.70;;;20.30;99.90;;;;;;5039714;28;20481;-86
2022/06/27 13:39:27;;;;;;;3.20;3.00;;;20.30;99.90;;;;;;5040123;28;20457;-85
2022/06/27 13:41:53;;;;;;;3.20;2.77;;;20.10;99.90;;;;;;5040559;28;20507;-85
2022/06/27 13:44:20;;;;;;;2.13;1.93;;;20.10;99.90;;;;;;5040520;28;20445;-86
2022/06/27 13:46:47;;;;;;;3.00;2.20;;;20.40;99.90;;;;;;5047602;28;20473;-83
2022/06/27 13:49:15;;;;;;;3.03;2.83;;;20.50;99.90;;;;;;5052059;28;20520;-85
2022/06/27 13:51:42;;;;;;;2.20;2.10;;;20.60;99.90;;;;;;5045446;28;20469;-86
2022/06/27 13:54:08;;;;;;;2.93;2.73;;;20.70;99.90;;;;;;5041566;28;20457;-85
2022/06/27 13:56:35;;;;;;;2.40;2.30;;;20.80;99.90;;;;;;5040366;28;20833;-86
2022/06/27 13:59:02;;;;;;;3.73;3.43;;;20.80;99.90;;;;;;5040279;28;20444;-86
2022/06/27 14:01:29;;;;;;;3.83;3.50;;;20.80;99.90;;;;;;5039342;28;20454;-85
2022/06/27 14:03:56;;;;;;;4.53;3.57;;;20.80;99.90;;;;;;5039480;28;20481;-86
2022/06/27 14:09:09;;;;;;;2.30;2.20;;;20.80;99.90;;;;;;5039837;28;20502;-85
2022/06/27 14:11:36;;;;;;;2.47;2.27;;;20.80;99.90;;;;;;5039463;28;20965;-85
2022/06/27 14:14:04;;;;;;;3.33;3.17;;;20.80;99.90;;;;;;5039709;28;20790;-86
2022/06/27 14:16:31;;;;;;;2.53;2.43;;;20.90;99.90;;;;;;5040206;28;21021;-86
2022/06/27 14:18:57;;;;;;;3.90;3.50;;;21.10;99.90;;;;;;5039513;28;20483;-85
2022/06/27 14:21:26;;;;;;;2.03;1.93;;;21.20;99.90;;;;;;5039102;28;20454;-86
2022/06/27 14:23:52;;;;;;;2.53;2.43;;;21.30;99.90;;;;;;5047349;28;20457;-85
2022/06/27 14:26:19;;;;;;;2.33;2.23;;;21.20;99.90;;;;;;5040103;28;21012;-85
2022/06/27 14:28:46;;;;;;;3.23;2.93;;;21.10;99.90;;;;;;5041962;28;20502;-85
2022/06/27 14:31:13;;;;;;;2.67;2.47;;;21.00;99.90;;;;;;5041958;28;20453;-86
2022/06/27 14:33:40;;;;;;;1.90;1.80;;;21.00;99.90;;;;;;5040513;28;20840;-86
2022/06/27 14:36:08;;;;;;;2.20;2.10;;;20.90;99.90;;;;;;5039987;28;20497;-86
2022/06/27 14:38:36;;;;;;;1.90;1.80;;;20.80;99.90;;;;;;5040021;28;20484;-86
2022/06/27 14:41:04;;;;;;;2.13;2.03;;;20.80;99.90;;;;;;5038751;28;20457;-86
2022/06/27 14:43:30;;;;;;;2.40;2.30;;;20.70;99.90;;;;;;5039888;28;20446;-86
2022/06/27 14:45:57;;;;;;;2.37;2.23;;;20.60;99.90;;;;;;5039752;28;21003;-85
2022/06/27 14:48:24;;;;;;;1.80;1.70;;;20.50;99.90;;;;;;5039342;28;20491;-85
2022/06/27 14:50:51;;;;;;;2.03;1.93;;;20.60;99.90;;;;;;5038912;28;20950;-86
2022/06/27 14:53:18;;;;;;;2.53;2.40;;;20.60;99.90;;;;;;5039215;28;20468;-85
2022/06/27 14:55:46;;;;;;;2.20;2.00;;;20.60;99.90;;;;;;5039184;28;20477;-86
2022/06/27 14:58:13;;;;;;;2.03;1.93;;;20.60;99.90;;;;;;5039948;28;20457;-86
2022/06/27 15:00:40;;;;;;;2.30;2.20;;;20.50;99.90;;;;;;5039195;28;20456;-86
2022/06/27 15:03:06;;;;;;;1.90;1.80;;;20.70;99.90;;;;;;5039661;28;20467;-85
2022/06/27 15:05:33;;;;;;;2.47;2.37;;;20.80;99.90;;;;;;5038959;28;20485;-86
2022/06/27 15:08:00;;;;;;;2.27;2.17;;;21.10;99.90;;;;;;5038666;28;20462;-86
2022/06/27 15:10:27;;;;;;;2.43;2.23;;;21.40;99.90;;;;;;5038760;28;20455;-85